Schedule Details


Flight Number: CTN701
Departure: Lisbon (LPPT) at 10:55
Arrival: Franjo Tudman (LDZA) at 15:15
Route: FTM?UP600?PRT?UL155?ZMR?UN976?LATEK?UN871?NINUN?UZ871?ETIDO?UL55?BLONA?Y11?KUMIN?M730?KODOK?Y11?LURUT?M859?CHI?M167?ROTAR?DCT?ABLAT?DCT?ARGOM

Weather Information
LPPT 112300Z 24011KT 9999 FEW030 15/10 Q1022
LDZA 112300Z 25011KT CAVOK 19/10 Q1007 BECMG 24008KT
Schedule Frequency

Route Map